sensor_id;sensor_type;location;lat;lon;timestamp;pressure;altitude;pressure_sealevel;temperature;humidity
71126;BME280;58785;55.566;38.058;2023-01-31T00:01:33;98431.81;;;0.26;73.73
71126;BME280;58785;55.566;38.058;2023-01-31T00:04:01;98441.97;;;0.31;73.74
71126;BME280;58785;55.566;38.058;2023-01-31T00:06:30;98440.03;;;0.33;73.80
71126;BME280;58785;55.566;38.058;2023-01-31T00:08:57;98456.09;;;0.39;73.50
71126;BME280;58785;55.566;38.058;2023-01-31T00:11:25;98457.78;;;0.40;73.53
71126;BME280;58785;55.566;38.058;2023-01-31T00:13:52;98445.59;;;0.39;73.36
71126;BME280;58785;55.566;38.058;2023-01-31T00:16:18;98450.13;;;0.37;73.60
71126;BME280;58785;55.566;38.058;2023-01-31T00:18:45;98452.88;;;0.36;73.81
71126;BME280;58785;55.566;38.058;2023-01-31T00:21:17;98447.06;;;0.32;73.96
71126;BME280;58785;55.566;38.058;2023-01-31T00:23:44;98436.25;;;0.25;74.21
71126;BME280;58785;55.566;38.058;2023-01-31T00:28:42;98453.75;;;0.25;73.84
71126;BME280;58785;55.566;38.058;2023-01-31T00:31:09;98437.19;;;0.24;73.61
71126;BME280;58785;55.566;38.058;2023-01-31T00:33:36;98443.00;;;0.28;74.03
71126;BME280;58785;55.566;38.058;2023-01-31T00:36:07;98444.34;;;0.22;74.18
71126;BME280;58785;55.566;38.058;2023-01-31T00:38:33;98452.09;;;0.24;74.08
71126;BME280;58785;55.566;38.058;2023-01-31T00:40:59;98441.88;;;0.21;74.06
71126;BME280;58785;55.566;38.058;2023-01-31T00:43:25;98455.28;;;0.27;74.13
71126;BME280;58785;55.566;38.058;2023-01-31T00:45:50;98451.34;;;0.33;73.71
71126;BME280;58785;55.566;38.058;2023-01-31T00:48:16;98448.59;;;0.35;73.59
71126;BME280;58785;55.566;38.058;2023-01-31T00:50:42;98448.34;;;0.38;73.77
71126;BME280;58785;55.566;38.058;2023-01-31T00:53:08;98454.78;;;0.45;73.59
71126;BME280;58785;55.566;38.058;2023-01-31T00:55:33;98443.22;;;0.36;73.66
71126;BME280;58785;55.566;38.058;2023-01-31T00:57:59;98450.75;;;0.41;73.50
71126;BME280;58785;55.566;38.058;2023-01-31T01:00:25;98449.31;;;0.37;73.59
71126;BME280;58785;55.566;38.058;2023-01-31T01:02:51;98447.91;;;0.33;73.38
71126;BME280;58785;55.566;38.058;2023-01-31T01:05:16;98460.06;;;0.34;73.65
71126;BME280;58785;55.566;38.058;2023-01-31T01:07:42;98463.38;;;0.36;73.60
71126;BME280;58785;55.566;38.058;2023-01-31T01:10:08;98473.72;;;0.37;73.72
71126;BME280;58785;55.566;38.058;2023-01-31T01:12:34;98468.50;;;0.37;73.76
71126;BME280;58785;55.566;38.058;2023-01-31T01:15:00;98465.63;;;0.40;73.55
71126;BME280;58785;55.566;38.058;2023-01-31T01:17:25;98468.25;;;0.40;73.56
71126;BME280;58785;55.566;38.058;2023-01-31T01:19:51;98474.91;;;0.44;73.61
71126;BME280;58785;55.566;38.058;2023-01-31T01:22:17;98461.22;;;0.41;73.52
71126;BME280;58785;55.566;38.058;2023-01-31T01:24:43;98472.28;;;0.44;73.17
71126;BME280;58785;55.566;38.058;2023-01-31T01:27:09;98472.88;;;0.48;73.12
71126;BME280;58785;55.566;38.058;2023-01-31T01:29:35;98486.69;;;0.50;73.24
71126;BME280;58785;55.566;38.058;2023-01-31T01:32:01;98485.41;;;0.44;73.27
71126;BME280;58785;55.566;38.058;2023-01-31T01:34:27;98481.56;;;0.48;73.46
71126;BME280;58785;55.566;38.058;2023-01-31T01:36:53;98471.19;;;0.47;73.30
71126;BME280;58785;55.566;38.058;2023-01-31T01:39:18;98474.16;;;0.53;73.11
71126;BME280;58785;55.566;38.058;2023-01-31T01:41:45;98473.69;;;0.48;73.39
71126;BME280;58785;55.566;38.058;2023-01-31T01:50:37;98488.69;;;0.57;73.10
71126;BME280;58785;55.566;38.058;2023-01-31T01:53:11;98480.94;;;0.56;72.92
71126;BME280;58785;55.566;38.058;2023-01-31T01:55:43;98480.47;;;0.62;73.00
71126;BME280;58785;55.566;38.058;2023-01-31T01:58:26;98488.31;;;0.62;72.73
71126;BME280;58785;55.566;38.058;2023-01-31T02:00:53;98469.22;;;0.60;72.77
71126;BME280;58785;55.566;38.058;2023-01-31T02:03:20;98481.16;;;0.64;73.00
71126;BME280;58785;55.566;38.058;2023-01-31T02:05:51;98476.03;;;0.63;73.17
71126;BME280;58785;55.566;38.058;2023-01-31T02:08:20;98478.78;;;0.61;72.75
71126;BME280;58785;55.566;38.058;2023-01-31T02:10:54;98475.78;;;0.66;73.16
71126;BME280;58785;55.566;38.058;2023-01-31T02:13:22;98479.09;;;0.68;72.74
71126;BME280;58785;55.566;38.058;2023-01-31T02:15:48;98476.47;;;0.68;72.68
71126;BME280;58785;55.566;38.058;2023-01-31T02:18:14;98486.63;;;0.72;72.53
71126;BME280;58785;55.566;38.058;2023-01-31T02:34:33;98469.91;;;0.73;72.54
71126;BME280;58785;55.566;38.058;2023-01-31T02:45:40;98469.84;;;0.64;72.97
71126;BME280;58785;55.566;38.058;2023-01-31T02:48:32;98475.91;;;0.64;72.93
71126;BME280;58785;55.566;38.058;2023-01-31T02:51:09;98466.75;;;0.58;73.04
71126;BME280;58785;55.566;38.058;2023-01-31T02:53:49;98473.91;;;0.56;73.45
71126;BME280;58785;55.566;38.058;2023-01-31T02:56:26;98467.69;;;0.57;73.16
71126;BME280;58785;55.566;38.058;2023-01-31T02:59:10;98467.97;;;0.54;73.29
71126;BME280;58785;55.566;38.058;2023-01-31T03:01:44;98466.44;;;0.52;73.53
71126;BME280;58785;55.566;38.058;2023-01-31T03:04:12;98470.84;;;0.51;73.30
71126;BME280;58785;55.566;38.058;2023-01-31T03:07:06;98465.97;;;0.47;73.26
71126;BME280;58785;55.566;38.058;2023-01-31T03:18:20;98459.53;;;0.51;73.02
71126;BME280;58785;55.566;38.058;2023-01-31T03:23:36;98459.75;;;0.48;73.46
71126;BME280;58785;55.566;38.058;2023-01-31T03:26:05;98452.16;;;0.45;73.34
71126;BME280;58785;55.566;38.058;2023-01-31T03:28:33;98467.50;;;0.49;73.08
71126;BME280;58785;55.566;38.058;2023-01-31T03:31:43;98465.13;;;0.46;73.21
71126;BME280;58785;55.566;38.058;2023-01-31T03:34:09;98463.81;;;0.52;73.34
71126;BME280;58785;55.566;38.058;2023-01-31T03:37:02;98470.00;;;0.51;73.25
71126;BME280;58785;55.566;38.058;2023-01-31T03:39:37;98485.75;;;0.51;73.26
71126;BME280;58785;55.566;38.058;2023-01-31T03:42:11;98489.91;;;0.53;73.28
71126;BME280;58785;55.566;38.058;2023-01-31T03:44:53;98490.72;;;0.54;73.09
71126;BME280;58785;55.566;38.058;2023-01-31T03:47:32;98487.03;;;0.56;73.22
71126;BME280;58785;55.566;38.058;2023-01-31T03:50:04;98474.28;;;0.52;73.29
71126;BME280;58785;55.566;38.058;2023-01-31T03:52:34;98483.56;;;0.56;73.40
71126;BME280;58785;55.566;38.058;2023-01-31T03:55:12;98492.00;;;0.60;73.01
71126;BME280;58785;55.566;38.058;2023-01-31T03:57:41;98499.53;;;0.64;73.10
71126;BME280;58785;55.566;38.058;2023-01-31T04:00:12;98480.59;;;0.61;73.03
71126;BME280;58785;55.566;38.058;2023-01-31T04:02:40;98489.50;;;0.58;73.19
71126;BME280;58785;55.566;38.058;2023-01-31T04:05:09;98499.66;;;0.63;72.92
71126;BME280;58785;55.566;38.058;2023-01-31T04:07:36;98494.28;;;0.64;72.96
71126;BME280;58785;55.566;38.058;2023-01-31T04:10:10;98504.28;;;0.70;73.05
71126;BME280;58785;55.566;38.058;2023-01-31T04:12:38;98508.78;;;0.68;73.04
71126;BME280;58785;55.566;38.058;2023-01-31T04:15:05;98511.28;;;0.70;72.86
71126;BME280;58785;55.566;38.058;2023-01-31T04:17:31;98521.19;;;0.66;73.20
71126;BME280;58785;55.566;38.058;2023-01-31T04:19:58;98508.09;;;0.66;73.30
71126;BME280;58785;55.566;38.058;2023-01-31T04:22:24;98502.41;;;0.61;73.10
71126;BME280;58785;55.566;38.058;2023-01-31T04:24:49;98504.50;;;0.67;73.07
71126;BME280;58785;55.566;38.058;2023-01-31T04:27:15;98505.72;;;0.63;73.42
71126;BME280;58785;55.566;38.058;2023-01-31T04:29:40;98508.22;;;0.65;73.28
71126;BME280;58785;55.566;38.058;2023-01-31T04:32:06;98515.81;;;0.68;73.01
71126;BME280;58785;55.566;38.058;2023-01-31T04:34:32;98513.22;;;0.68;72.86
71126;BME280;58785;55.566;38.058;2023-01-31T04:36:57;98518.31;;;0.69;73.13
71126;BME280;58785;55.566;38.058;2023-01-31T04:39:23;98513.06;;;0.69;73.27
71126;BME280;58785;55.566;38.058;2023-01-31T04:41:49;98531.66;;;0.77;73.29
71126;BME280;58785;55.566;38.058;2023-01-31T04:44:15;98536.19;;;0.75;73.27
71126;BME280;58785;55.566;38.058;2023-01-31T04:46:41;98525.13;;;0.72;72.83
71126;BME280;58785;55.566;38.058;2023-01-31T04:49:07;98541.56;;;0.74;73.31
71126;BME280;58785;55.566;38.058;2023-01-31T04:51:32;98558.00;;;0.76;72.83
71126;BME280;58785;55.566;38.058;2023-01-31T04:53:58;98536.69;;;0.69;72.94
71126;BME280;58785;55.566;38.058;2023-01-31T04:56:24;98556.00;;;0.68;72.87
71126;BME280;58785;55.566;38.058;2023-01-31T04:58:49;98551.84;;;0.66;73.62
71126;BME280;58785;55.566;38.058;2023-01-31T05:01:15;98526.00;;;0.61;72.87
71126;BME280;58785;55.566;38.058;2023-01-31T05:03:41;98552.31;;;0.71;73.30
71126;BME280;58785;55.566;38.058;2023-01-31T05:06:07;98550.63;;;0.70;73.05
71126;BME280;58785;55.566;38.058;2023-01-31T05:08:33;98546.13;;;0.72;73.51
71126;BME280;58785;55.566;38.058;2023-01-31T05:11:00;98551.38;;;0.72;73.04
71126;BME280;58785;55.566;38.058;2023-01-31T05:13:26;98548.75;;;0.72;73.13
71126;BME280;58785;55.566;38.058;2023-01-31T05:15:54;98528.25;;;0.66;73.30
71126;BME280;58785;55.566;38.058;2023-01-31T05:18:23;98537.63;;;0.68;73.20
71126;BME280;58785;55.566;38.058;2023-01-31T05:20:49;98550.75;;;0.68;73.48
71126;BME280;58785;55.566;38.058;2023-01-31T05:23:16;98552.41;;;0.69;73.60
71126;BME280;58785;55.566;38.058;2023-01-31T05:25:42;98545.28;;;0.71;73.24
71126;BME280;58785;55.566;38.058;2023-01-31T05:28:08;98545.28;;;0.71;73.28
71126;BME280;58785;55.566;38.058;2023-01-31T05:30:34;98557.66;;;0.69;73.13
71126;BME280;58785;55.566;38.058;2023-01-31T05:33:00;98538.03;;;0.64;73.13
71126;BME280;58785;55.566;38.058;2023-01-31T05:35:26;98546.59;;;0.66;73.21
71126;BME280;58785;55.566;38.058;2023-01-31T05:37:53;98548.75;;;0.72;73.46
71126;BME280;58785;55.566;38.058;2023-01-31T05:40:18;98543.63;;;0.70;73.28
71126;BME280;58785;55.566;38.058;2023-01-31T05:42:44;98553.97;;;0.72;73.43
71126;BME280;58785;55.566;38.058;2023-01-31T05:45:10;98549.69;;;0.71;73.42
71126;BME280;58785;55.566;38.058;2023-01-31T05:47:36;98553.84;;;0.73;73.27
71126;BME280;58785;55.566;38.058;2023-01-31T05:53:42;98545.72;;;0.76;73.16
71126;BME280;58785;55.566;38.058;2023-01-31T05:56:08;98540.47;;;0.76;73.25
71126;BME280;58785;55.566;38.058;2023-01-31T05:58:33;98544.84;;;0.87;73.08
71126;BME280;58785;55.566;38.058;2023-01-31T06:00:59;98557.84;;;0.89;72.85
71126;BME280;58785;55.566;38.058;2023-01-31T06:03:25;98557.72;;;0.90;72.79
71126;BME280;58785;55.566;38.058;2023-01-31T06:05:50;98572.63;;;0.90;72.85
71126;BME280;58785;55.566;38.058;2023-01-31T06:08:16;98576.00;;;0.92;73.18
71126;BME280;58785;55.566;38.058;2023-01-31T06:10:42;98563.09;;;0.89;72.84
71126;BME280;58785;55.566;38.058;2023-01-31T06:13:08;98573.38;;;0.92;72.90
71126;BME280;58785;55.566;38.058;2023-01-31T06:15:33;98569.78;;;0.93;72.96
71126;BME280;58785;55.566;38.058;2023-01-31T06:17:59;98575.25;;;0.90;72.93
71126;BME280;58785;55.566;38.058;2023-01-31T06:20:25;98582.19;;;0.91;73.02
71126;BME280;58785;55.566;38.058;2023-01-31T06:22:51;98570.00;;;0.90;72.97
71126;BME280;58785;55.566;38.058;2023-01-31T06:25:16;98569.91;;;0.91;72.90
71126;BME280;58785;55.566;38.058;2023-01-31T06:27:42;98580.72;;;0.98;72.96
71126;BME280;58785;55.566;38.058;2023-01-31T06:30:09;98583.13;;;1.01;73.11
71126;BME280;58785;55.566;38.058;2023-01-31T06:32:35;98582.16;;;1.02;72.93
71126;BME280;58785;55.566;38.058;2023-01-31T06:35:02;98588.38;;;1.01;72.65
71126;BME280;58785;55.566;38.058;2023-01-31T06:37:29;98583.13;;;1.01;72.55
71126;BME280;58785;55.566;38.058;2023-01-31T06:39:54;98588.22;;;1.02;72.71
71126;BME280;58785;55.566;38.058;2023-01-31T06:42:20;98573.81;;;0.97;72.94
71126;BME280;58785;55.566;38.058;2023-01-31T06:44:45;98580.59;;;0.99;72.47
71126;BME280;58785;55.566;38.058;2023-01-31T06:47:11;98592.38;;;1.05;72.57
71126;BME280;58785;55.566;38.058;2023-01-31T06:49:38;98604.28;;;1.09;72.32
71126;BME280;58785;55.566;38.058;2023-01-31T06:52:04;98603.94;;;1.13;72.62
71126;BME280;58785;55.566;38.058;2023-01-31T06:54:29;98614.75;;;1.20;72.40
71126;BME280;58785;55.566;38.058;2023-01-31T06:56:55;98595.19;;;1.24;72.03
71126;BME280;58785;55.566;38.058;2023-01-31T06:59:21;98598.16;;;1.31;72.16
71126;BME280;58785;55.566;38.058;2023-01-31T07:01:48;98615.16;;;1.36;71.95
71126;BME280;58785;55.566;38.058;2023-01-31T07:04:14;98616.25;;;1.34;71.75
71126;BME280;58785;55.566;38.058;2023-01-31T07:06:40;98619.22;;;1.40;71.91
71126;BME280;58785;55.566;38.058;2023-01-31T07:09:05;98619.47;;;1.37;71.60
71126;BME280;58785;55.566;38.058;2023-01-31T07:11:31;98629.47;;;1.43;71.59
71126;BME280;58785;55.566;38.058;2023-01-31T07:13:57;98630.31;;;1.44;71.74
71126;BME280;58785;55.566;38.058;2023-01-31T07:16:23;98634.47;;;1.47;71.76
71126;BME280;58785;55.566;38.058;2023-01-31T07:18:53;98635.28;;;1.47;71.11
71126;BME280;58785;55.566;38.058;2023-01-31T07:21:19;98632.94;;;1.44;71.80
71126;BME280;58785;55.566;38.058;2023-01-31T07:23:45;98619.09;;;1.42;71.32
71126;BME280;58785;55.566;38.058;2023-01-31T07:26:10;98639.09;;;1.54;71.31
71126;BME280;58785;55.566;38.058;2023-01-31T07:28:38;98624.28;;;1.53;71.49
71126;BME280;58785;55.566;38.058;2023-01-31T07:31:10;98635.63;;;1.54;71.24
71126;BME280;58785;55.566;38.058;2023-01-31T07:33:37;98643.13;;;1.58;71.28
71126;BME280;58785;55.566;38.058;2023-01-31T07:36:04;98647.53;;;1.58;71.59
71126;BME280;58785;55.566;38.058;2023-01-31T07:38:31;98656.13;;;1.60;71.30
71126;BME280;58785;55.566;38.058;2023-01-31T07:40:58;98652.56;;;1.61;71.21
71126;BME280;58785;55.566;38.058;2023-01-31T07:43:25;98645.50;;;1.61;71.05
71126;BME280;58785;55.566;38.058;2023-01-31T07:45:51;98646.66;;;1.68;71.43
71126;BME280;58785;55.566;38.058;2023-01-31T07:48:16;98646.97;;;1.75;70.88
71126;BME280;58785;55.566;38.058;2023-01-31T07:50:52;98650.44;;;1.76;71.16
71126;BME280;58785;55.566;38.058;2023-01-31T07:53:18;98645.69;;;1.69;71.10
71126;BME280;58785;55.566;38.058;2023-01-31T07:55:44;98658.19;;;1.77;71.05
71126;BME280;58785;55.566;38.058;2023-01-31T07:58:13;98650.78;;;1.82;71.10
71126;BME280;58785;55.566;38.058;2023-01-31T08:00:40;98655.28;;;1.80;70.70
71126;BME280;58785;55.566;38.058;2023-01-31T08:03:27;98664.88;;;1.81;70.81
71126;BME280;58785;55.566;38.058;2023-01-31T08:06:06;98659.03;;;1.78;70.77
71126;BME280;58785;55.566;38.058;2023-01-31T08:08:34;98668.91;;;1.85;70.62
71126;BME280;58785;55.566;38.058;2023-01-31T08:11:00;98673.88;;;1.88;71.10
71126;BME280;58785;55.566;38.058;2023-01-31T08:13:25;98666.13;;;1.87;70.81
71126;BME280;58785;55.566;38.058;2023-01-31T08:15:52;98677.94;;;1.92;70.70
71126;BME280;58785;55.566;38.058;2023-01-31T08:18:18;98681.34;;;2.04;70.88
71126;BME280;58785;55.566;38.058;2023-01-31T08:20:44;98684.53;;;2.08;70.68
71126;BME280;58785;55.566;38.058;2023-01-31T08:23:09;98689.03;;;2.17;70.19
71126;BME280;58785;55.566;38.058;2023-01-31T08:25:35;98685.44;;;2.18;70.25
71126;BME280;58785;55.566;38.058;2023-01-31T08:28:01;98685.56;;;2.16;70.16
71126;BME280;58785;55.566;38.058;2023-01-31T08:30:28;98691.09;;;2.13;70.33
71126;BME280;58785;55.566;38.058;2023-01-31T08:32:54;98690.53;;;2.19;70.79
71126;BME280;58785;55.566;38.058;2023-01-31T08:35:20;98694.06;;;2.29;70.06
71126;BME280;58785;55.566;38.058;2023-01-31T08:37:46;98699.09;;;2.33;70.43
71126;BME280;58785;55.566;38.058;2023-01-31T08:40:12;98685.09;;;2.32;70.46
71126;BME280;58785;55.566;38.058;2023-01-31T08:42:38;98680.97;;;2.39;70.05
71126;BME280;58785;55.566;38.058;2023-01-31T08:45:05;98685.97;;;2.42;69.93
71126;BME280;58785;55.566;38.058;2023-01-31T08:47:32;98680.72;;;2.42;69.80
71126;BME280;58785;55.566;38.058;2023-01-31T08:49:57;98683.50;;;2.50;69.92
71126;BME280;58785;55.566;38.058;2023-01-31T08:52:23;98684.66;;;2.57;69.87
71126;BME280;58785;55.566;38.058;2023-01-31T08:54:49;98696.06;;;2.68;69.80
71126;BME280;58785;55.566;38.058;2023-01-31T08:57:14;98689.53;;;2.62;69.63
71126;BME280;58785;55.566;38.058;2023-01-31T08:59:40;98702.41;;;2.65;70.03
71126;BME280;58785;55.566;38.058;2023-01-31T09:02:09;98687.16;;;2.59;69.54
71126;BME280;58785;55.566;38.058;2023-01-31T09:04:35;98697.44;;;2.62;70.04
71126;BME280;58785;55.566;38.058;2023-01-31T09:07:01;98702.72;;;2.72;69.71
71126;BME280;58785;55.566;38.058;2023-01-31T09:09:26;98704.84;;;2.87;69.08
71126;BME280;58785;55.566;38.058;2023-01-31T09:11:52;98707.09;;;2.92;69.07
71126;BME280;58785;55.566;38.058;2023-01-31T09:14:17;98708.03;;;2.81;69.02
71126;BME280;58785;55.566;38.058;2023-01-31T09:16:43;98704.44;;;2.82;69.65
71126;BME280;58785;55.566;38.058;2023-01-31T09:19:11;98709.94;;;2.79;69.31
71126;BME280;58785;55.566;38.058;2023-01-31T09:21:37;98696.78;;;2.79;69.43
71126;BME280;58785;55.566;38.058;2023-01-31T09:24:02;98701.25;;;2.88;69.04
71126;BME280;58785;55.566;38.058;2023-01-31T09:26:29;98700.69;;;2.85;69.35
71126;BME280;58785;55.566;38.058;2023-01-31T09:28:54;98696.25;;;2.85;69.59
71126;BME280;58785;55.566;38.058;2023-01-31T09:31:22;98697.66;;;2.89;68.93
71126;BME280;58785;55.566;38.058;2023-01-31T09:33:48;98690.16;;;2.85;68.93
71126;BME280;58785;55.566;38.058;2023-01-31T09:36:16;98700.19;;;2.91;69.48
71126;BME280;58785;55.566;38.058;2023-01-31T09:38:42;98701.00;;;2.92;69.17
71126;BME280;58785;55.566;38.058;2023-01-31T09:41:37;98696.56;;;2.92;68.71
71126;BME280;58785;55.566;38.058;2023-01-31T09:44:19;98694.91;;;2.91;68.82
71126;BME280;58785;55.566;38.058;2023-01-31T09:46:55;98686.03;;;2.92;69.05
71126;BME280;58785;55.566;38.058;2023-01-31T09:53:02;98706.69;;;2.97;68.76
71126;BME280;58785;55.566;38.058;2023-01-31T09:55:40;98692.41;;;2.99;68.80
71126;BME280;58785;55.566;38.058;2023-01-31T09:58:18;98713.91;;;3.04;68.62
71126;BME280;58785;55.566;38.058;2023-01-31T10:09:44;98714.63;;;3.06;68.45
71126;BME280;58785;55.566;38.058;2023-01-31T10:12:42;98703.38;;;3.04;68.66
71126;BME280;58785;55.566;38.058;2023-01-31T10:15:21;98705.53;;;2.89;68.48
71126;BME280;58785;55.566;38.058;2023-01-31T10:18:17;98712.88;;;2.86;69.21
71126;BME280;58785;55.566;38.058;2023-01-31T10:20:53;98712.47;;;2.91;68.58
71126;BME280;58785;55.566;38.058;2023-01-31T10:23:40;98699.75;;;2.96;69.09
71126;BME280;58785;55.566;38.058;2023-01-31T10:26:13;98709.03;;;3.00;68.88
71126;BME280;58785;55.566;38.058;2023-01-31T10:31:34;98711.88;;;3.17;68.55
71126;BME280;58785;55.566;38.058;2023-01-31T10:37:32;98691.28;;;3.52;68.02
71126;BME280;58785;55.566;38.058;2023-01-31T10:40:14;98689.47;;;3.62;67.27
71126;BME280;58785;55.566;38.058;2023-01-31T10:42:41;98718.03;;;3.66;67.47
71126;BME280;58785;55.566;38.058;2023-01-31T10:45:21;98707.34;;;3.58;67.92
71126;BME280;58785;55.566;38.058;2023-01-31T10:48:12;98705.00;;;3.45;67.80
71126;BME280;58785;55.566;38.058;2023-01-31T10:50:48;98704.16;;;3.45;68.05
71126;BME280;58785;55.566;38.058;2023-01-31T10:56:17;98719.44;;;3.51;67.95
71126;BME280;58785;55.566;38.058;2023-01-31T10:58:45;98725.66;;;3.50;67.97
71126;BME280;58785;55.566;38.058;2023-01-31T11:01:12;98724.53;;;3.43;68.01
71126;BME280;58785;55.566;38.058;2023-01-31T11:03:47;98721.63;;;3.36;67.95
71126;BME280;58785;55.566;38.058;2023-01-31T11:06:13;98732.81;;;3.29;68.87
71126;BME280;58785;55.566;38.058;2023-01-31T11:08:46;98729.50;;;3.27;68.42
71126;BME280;58785;55.566;38.058;2023-01-31T11:11:16;98730.06;;;3.30;68.70
71126;BME280;58785;55.566;38.058;2023-01-31T11:13:57;98731.31;;;3.26;68.45
71126;BME280;58785;55.566;38.058;2023-01-31T11:16:23;98723.38;;;3.16;68.63
71126;BME280;58785;55.566;38.058;2023-01-31T11:18:50;98722.50;;;3.06;69.07
71126;BME280;58785;55.566;38.058;2023-01-31T11:21:24;98730.84;;;3.11;68.48
71126;BME280;58785;55.566;38.058;2023-01-31T11:23:51;98730.84;;;3.11;68.78
71126;BME280;58785;55.566;38.058;2023-01-31T11:26:38;98727.09;;;3.04;69.01
71126;BME280;58785;55.566;38.058;2023-01-31T11:29:15;98730.56;;;3.05;68.93
71126;BME280;58785;55.566;38.058;2023-01-31T11:31:42;98734.16;;;3.04;68.70
71126;BME280;58785;55.566;38.058;2023-01-31T11:34:22;98740.41;;;3.03;69.02
71126;BME280;58785;55.566;38.058;2023-01-31T11:36:48;98730.84;;;3.02;68.94
71126;BME280;58785;55.566;38.058;2023-01-31T11:39:25;98731.94;;;3.09;68.63
71126;BME280;58785;55.566;38.058;2023-01-31T11:41:52;98728.22;;;3.11;68.69
71126;BME280;58785;55.566;38.058;2023-01-31T11:44:19;98734.31;;;3.12;68.67
71126;BME280;58785;55.566;38.058;2023-01-31T11:49:19;98741.25;;;3.13;68.55
71126;BME280;58785;55.566;38.058;2023-01-31T11:51:46;98740.56;;;3.11;68.80
71126;BME280;58785;55.566;38.058;2023-01-31T11:54:17;98745.56;;;3.14;68.90
71126;BME280;58785;55.566;38.058;2023-01-31T11:56:45;98748.75;;;3.17;69.05
71126;BME280;58785;55.566;38.058;2023-01-31T11:59:19;98749.84;;;3.15;68.61
71126;BME280;58785;55.566;38.058;2023-01-31T12:01:52;98749.41;;;3.10;68.82
71126;BME280;58785;55.566;38.058;2023-01-31T12:04:31;98758.56;;;3.06;68.93
71126;BME280;58785;55.566;38.058;2023-01-31T12:07:04;98761.00;;;2.98;69.02
71126;BME280;58785;55.566;38.058;2023-01-31T12:09:40;98750.75;;;2.95;68.99
71126;BME280;58785;55.566;38.058;2023-01-31T12:12:34;98759.91;;;3.00;68.89
71126;BME280;58785;55.566;38.058;2023-01-31T12:15:03;98762.81;;;2.97;69.04
71126;BME280;58785;55.566;38.058;2023-01-31T12:17:43;98763.22;;;2.93;69.07
71126;BME280;58785;55.566;38.058;2023-01-31T12:20:38;98760.00;;;2.89;69.02
71126;BME280;58785;55.566;38.058;2023-01-31T12:46:00;98772.59;;;2.55;70.06
71126;BME280;58785;55.566;38.058;2023-01-31T12:51:17;98780.47;;;2.55;69.66
71126;BME280;58785;55.566;38.058;2023-01-31T12:54:10;98777.38;;;2.50;70.37
71126;BME280;58785;55.566;38.058;2023-01-31T12:59:33;98789.53;;;2.41;69.97
71126;BME280;58785;55.566;38.058;2023-01-31T13:02:22;98781.88;;;2.38;70.22
71126;BME280;58785;55.566;38.058;2023-01-31T13:04:56;98797.66;;;2.38;70.50
71126;BME280;58785;55.566;38.058;2023-01-31T13:07:37;98795.03;;;2.38;69.96
71126;BME280;58785;55.566;38.058;2023-01-31T13:10:25;98801.53;;;2.34;70.32
71126;BME280;58785;55.566;38.058;2023-01-31T13:12:54;98794.41;;;2.25;70.35
71126;BME280;58785;55.566;38.058;2023-01-31T13:15:54;98810.00;;;2.38;70.41
71126;BME280;58785;55.566;38.058;2023-01-31T13:18:20;98807.22;;;2.39;70.15
71126;BME280;58785;55.566;38.058;2023-01-31T13:21:12;98809.84;;;2.39;70.51
71126;BME280;58785;55.566;38.058;2023-01-31T13:24:13;98814.28;;;2.39;70.13
71126;BME280;58785;55.566;38.058;2023-01-31T13:26:47;98816.91;;;2.39;70.30
71126;BME280;58785;55.566;38.058;2023-01-31T13:29:24;98812.63;;;2.38;70.16
71126;BME280;58785;55.566;38.058;2023-01-31T13:32:03;98813.38;;;2.28;70.50
71126;BME280;58785;55.566;38.058;2023-01-31T13:35:25;98818.41;;;2.32;70.82
71126;BME280;58785;55.566;38.058;2023-01-31T13:37:55;98809.09;;;2.27;70.56
71126;BME280;58785;55.566;38.058;2023-01-31T13:40:29;98815.66;;;2.33;70.33
71126;BME280;58785;55.566;38.058;2023-01-31T13:42:59;98824.50;;;2.32;70.95
71126;BME280;58785;55.566;38.058;2023-01-31T13:45:37;98824.88;;;2.27;70.58
71126;BME280;58785;55.566;38.058;2023-01-31T13:48:13;98808.44;;;2.14;70.81
71126;BME280;58785;55.566;38.058;2023-01-31T13:50:53;98821.78;;;2.22;70.57
71126;BME280;58785;55.566;38.058;2023-01-31T13:53:29;98830.66;;;2.21;70.94
71126;BME280;58785;55.566;38.058;2023-01-31T13:55:56;98819.28;;;2.21;71.31
71126;BME280;58785;55.566;38.058;2023-01-31T13:58:27;98826.31;;;2.20;70.67
71126;BME280;58785;55.566;38.058;2023-01-31T14:01:03;98823.00;;;2.18;71.19
71126;BME280;58785;55.566;38.058;2023-01-31T14:03:29;98814.06;;;2.10;71.01
71126;BME280;58785;55.566;38.058;2023-01-31T14:05:58;98811.00;;;2.05;71.64
71126;BME280;58785;55.566;38.058;2023-01-31T14:08:34;98812.09;;;2.02;71.72
71126;BME280;58785;55.566;38.058;2023-01-31T14:11:02;98816.50;;;2.01;71.76
71126;BME280;58785;55.566;38.058;2023-01-31T14:16:34;98814.94;;;1.99;71.44
71126;BME280;58785;55.566;38.058;2023-01-31T14:19:04;98793.19;;;1.97;71.36
71126;BME280;58785;55.566;38.058;2023-01-31T14:23:59;98798.63;;;1.84;72.01
71126;BME280;58785;55.566;38.058;2023-01-31T14:29:19;98836.00;;;1.88;71.46
71126;BME280;58785;55.566;38.058;2023-01-31T14:31:48;98833.25;;;1.89;71.48
71126;BME280;58785;55.566;38.058;2023-01-31T14:34:20;98849.03;;;1.89;71.72
71126;BME280;58785;55.566;38.058;2023-01-31T14:39:29;98853.22;;;1.92;71.25
71126;BME280;58785;55.566;38.058;2023-01-31T14:47:30;98884.59;;;2.05;71.36
71126;BME280;58785;55.566;38.058;2023-01-31T14:50:11;98872.72;;;2.10;71.35
71126;BME280;58785;55.566;38.058;2023-01-31T14:57:44;98873.13;;;2.06;71.38
71126;BME280;58785;55.566;38.058;2023-01-31T15:00:24;98874.91;;;2.05;71.25
71126;BME280;58785;55.566;38.058;2023-01-31T15:09:33;98886.53;;;2.03;71.62
71126;BME280;58785;55.566;38.058;2023-01-31T15:11:59;98885.69;;;2.02;71.60
71126;BME280;58785;55.566;38.058;2023-01-31T15:14:37;98880.56;;;2.00;71.85
71126;BME280;58785;55.566;38.058;2023-01-31T15:17:20;98892.84;;;2.00;72.20
71126;BME280;58785;55.566;38.058;2023-01-31T15:19:51;98887.59;;;2.00;71.46
71126;BME280;58785;55.566;38.058;2023-01-31T15:22:20;98881.50;;;1.99;71.45
71126;BME280;58785;55.566;38.058;2023-01-31T15:24:55;98895.59;;;1.98;72.12